sensor_id;sensor_type;location;lat;lon;timestamp;P1;durP1;ratioP1;P2;durP2;ratioP2
74229;SDS011;62589;12.568;99.958;2023-02-28T00:00:33;45.60;;;32.60;;
74229;SDS011;62589;12.568;99.958;2023-02-28T00:03:01;47.35;;;34.42;;
74229;SDS011;62589;12.568;99.958;2023-02-28T00:05:28;49.30;;;34.33;;
74229;SDS011;62589;12.568;99.958;2023-02-28T00:07:54;43.92;;;31.55;;
74229;SDS011;62589;12.568;99.958;2023-02-28T00:10:23;47.85;;;32.95;;
74229;SDS011;62589;12.568;99.958;2023-02-28T00:12:52;45.53;;;33.45;;
74229;SDS011;62589;12.568;99.958;2023-02-28T00:15:22;45.28;;;32.22;;
74229;SDS011;62589;12.568;99.958;2023-02-28T00:17:49;42.88;;;31.63;;
74229;SDS011;62589;12.568;99.958;2023-02-28T00:20:16;46.45;;;33.78;;
74229;SDS011;62589;12.568;99.958;2023-02-28T00:22:44;47.17;;;32.63;;
74229;SDS011;62589;12.568;99.958;2023-02-28T00:25:14;44.63;;;32.92;;
74229;SDS011;62589;12.568;99.958;2023-02-28T00:27:42;48.47;;;32.45;;
74229;SDS011;62589;12.568;99.958;2023-02-28T00:30:10;44.50;;;33.28;;
74229;SDS011;62589;12.568;99.958;2023-02-28T00:32:39;44.45;;;32.25;;
74229;SDS011;62589;12.568;99.958;2023-02-28T00:35:07;44.47;;;32.88;;
74229;SDS011;62589;12.568;99.958;2023-02-28T00:37:34;40.28;;;31.08;;
74229;SDS011;62589;12.568;99.958;2023-02-28T00:40:00;44.15;;;31.23;;
74229;SDS011;62589;12.568;99.958;2023-02-28T00:42:30;43.72;;;30.90;;
74229;SDS011;62589;12.568;99.958;2023-02-28T00:44:56;40.78;;;30.48;;
74229;SDS011;62589;12.568;99.958;2023-02-28T00:47:23;44.47;;;30.02;;
74229;SDS011;62589;12.568;99.958;2023-02-28T00:49:49;42.67;;;30.25;;
74229;SDS011;62589;12.568;99.958;2023-02-28T00:52:15;48.30;;;30.90;;
74229;SDS011;62589;12.568;99.958;2023-02-28T00:54:42;39.78;;;29.60;;
74229;SDS011;62589;12.568;99.958;2023-02-28T00:57:08;43.30;;;29.90;;
74229;SDS011;62589;12.568;99.958;2023-02-28T00:59:35;40.50;;;29.30;;
74229;SDS011;62589;12.568;99.958;2023-02-28T01:02:01;42.53;;;30.55;;
74229;SDS011;62589;12.568;99.958;2023-02-28T01:04:28;40.97;;;27.98;;
74229;SDS011;62589;12.568;99.958;2023-02-28T01:06:54;39.10;;;30.20;;
74229;SDS011;62589;12.568;99.958;2023-02-28T01:09:20;42.10;;;29.45;;
74229;SDS011;62589;12.568;99.958;2023-02-28T01:11:47;43.30;;;29.67;;
74229;SDS011;62589;12.568;99.958;2023-02-28T01:14:14;39.55;;;29.58;;
74229;SDS011;62589;12.568;99.958;2023-02-28T01:16:42;46.30;;;31.15;;
74229;SDS011;62589;12.568;99.958;2023-02-28T01:19:08;44.47;;;31.17;;
74229;SDS011;62589;12.568;99.958;2023-02-28T01:21:35;47.58;;;31.48;;
74229;SDS011;62589;12.568;99.958;2023-02-28T01:24:02;44.95;;;32.08;;
74229;SDS011;62589;12.568;99.958;2023-02-28T01:26:30;40.83;;;29.83;;
74229;SDS011;62589;12.568;99.958;2023-02-28T01:28:57;42.28;;;30.40;;
74229;SDS011;62589;12.568;99.958;2023-02-28T01:31:24;44.85;;;30.75;;
74229;SDS011;62589;12.568;99.958;2023-02-28T01:33:50;46.45;;;31.92;;
74229;SDS011;62589;12.568;99.958;2023-02-28T01:36:19;45.42;;;29.80;;
74229;SDS011;62589;12.568;99.958;2023-02-28T01:38:47;38.13;;;28.70;;
74229;SDS011;62589;12.568;99.958;2023-02-28T01:41:18;44.97;;;29.80;;
74229;SDS011;62589;12.568;99.958;2023-02-28T01:44:03;43.83;;;29.80;;
74229;SDS011;62589;12.568;99.958;2023-02-28T01:46:50;44.15;;;30.83;;
74229;SDS011;62589;12.568;99.958;2023-02-28T01:49:16;43.22;;;30.65;;
74229;SDS011;62589;12.568;99.958;2023-02-28T01:51:45;42.63;;;28.58;;
74229;SDS011;62589;12.568;99.958;2023-02-28T01:54:27;41.72;;;29.02;;
74229;SDS011;62589;12.568;99.958;2023-02-28T01:56:58;38.50;;;27.75;;
74229;SDS011;62589;12.568;99.958;2023-02-28T01:59:32;43.90;;;28.35;;
74229;SDS011;62589;12.568;99.958;2023-02-28T02:02:04;40.00;;;27.77;;
74229;SDS011;62589;12.568;99.958;2023-02-28T02:04:37;41.38;;;27.63;;
74229;SDS011;62589;12.568;99.958;2023-02-28T02:07:09;35.88;;;26.55;;
74229;SDS011;62589;12.568;99.958;2023-02-28T02:09:38;38.05;;;27.00;;
74229;SDS011;62589;12.568;99.958;2023-02-28T02:12:08;43.20;;;27.75;;
74229;SDS011;62589;12.568;99.958;2023-02-28T02:17:49;39.70;;;27.52;;
74229;SDS011;62589;12.568;99.958;2023-02-28T02:29:01;39.92;;;28.27;;
74229;SDS011;62589;12.568;99.958;2023-02-28T02:32:16;34.88;;;25.92;;
74229;SDS011;62589;12.568;99.958;2023-02-28T02:46:25;34.30;;;24.77;;
74229;SDS011;62589;12.568;99.958;2023-02-28T02:48:56;34.88;;;23.92;;
74229;SDS011;62589;12.568;99.958;2023-02-28T02:51:25;31.65;;;21.42;;
74229;SDS011;62589;12.568;99.958;2023-02-28T02:53:55;34.05;;;21.20;;
74229;SDS011;62589;12.568;99.958;2023-02-28T02:56:29;29.77;;;20.98;;
74229;SDS011;62589;12.568;99.958;2023-02-28T02:59:00;30.50;;;20.77;;
74229;SDS011;62589;12.568;99.958;2023-02-28T03:01:30;31.13;;;20.50;;
74229;SDS011;62589;12.568;99.958;2023-02-28T03:03:59;26.02;;;19.38;;
74229;SDS011;62589;12.568;99.958;2023-02-28T03:06:29;23.98;;;18.35;;
74229;SDS011;62589;12.568;99.958;2023-02-28T03:08:55;27.77;;;19.40;;
74229;SDS011;62589;12.568;99.958;2023-02-28T03:11:40;25.80;;;18.50;;
74229;SDS011;62589;12.568;99.958;2023-02-28T03:17:16;29.67;;;18.50;;
74229;SDS011;62589;12.568;99.958;2023-02-28T03:20:15;26.15;;;17.77;;
74229;SDS011;62589;12.568;99.958;2023-02-28T03:25:56;24.23;;;17.67;;
74229;SDS011;62589;12.568;99.958;2023-02-28T03:28:30;26.33;;;17.75;;
74229;SDS011;62589;12.568;99.958;2023-02-28T03:31:21;31.67;;;18.42;;
74229;SDS011;62589;12.568;99.958;2023-02-28T03:34:04;30.83;;;20.00;;
74229;SDS011;62589;12.568;99.958;2023-02-28T03:36:37;26.13;;;18.92;;
74229;SDS011;62589;12.568;99.958;2023-02-28T03:39:31;27.75;;;19.70;;
74229;SDS011;62589;12.568;99.958;2023-02-28T03:44:53;27.55;;;18.52;;
74229;SDS011;62589;12.568;99.958;2023-02-28T03:47:36;24.17;;;17.50;;
74229;SDS011;62589;12.568;99.958;2023-02-28T03:55:48;29.33;;;19.53;;
74229;SDS011;62589;12.568;99.958;2023-02-28T03:58:21;31.80;;;21.33;;
74229;SDS011;62589;12.568;99.958;2023-02-28T04:01:07;27.73;;;20.85;;
74229;SDS011;62589;12.568;99.958;2023-02-28T04:03:46;28.63;;;21.38;;
74229;SDS011;62589;12.568;99.958;2023-02-28T04:06:15;27.27;;;20.02;;
74229;SDS011;62589;12.568;99.958;2023-02-28T04:08:44;32.72;;;21.95;;
74229;SDS011;62589;12.568;99.958;2023-02-28T04:14:01;28.60;;;21.67;;
74229;SDS011;62589;12.568;99.958;2023-02-28T04:16:30;36.55;;;22.77;;
74229;SDS011;62589;12.568;99.958;2023-02-28T04:18:57;31.55;;;22.30;;
74229;SDS011;62589;12.568;99.958;2023-02-28T04:21:31;34.20;;;23.25;;
74229;SDS011;62589;12.568;99.958;2023-02-28T04:23:59;36.87;;;22.70;;
74229;SDS011;62589;12.568;99.958;2023-02-28T04:26:28;31.13;;;23.58;;
74229;SDS011;62589;12.568;99.958;2023-02-28T04:28:56;30.77;;;22.73;;
74229;SDS011;62589;12.568;99.958;2023-02-28T04:31:23;34.90;;;24.80;;
74229;SDS011;62589;12.568;99.958;2023-02-28T04:33:49;39.05;;;25.65;;
74229;SDS011;62589;12.568;99.958;2023-02-28T04:36:15;34.42;;;24.63;;
74229;SDS011;62589;12.568;99.958;2023-02-28T04:38:43;36.13;;;27.33;;
74229;SDS011;62589;12.568;99.958;2023-02-28T04:41:11;33.10;;;26.10;;
74229;SDS011;62589;12.568;99.958;2023-02-28T04:43:38;38.83;;;26.80;;
74229;SDS011;62589;12.568;99.958;2023-02-28T04:46:05;37.35;;;26.05;;
74229;SDS011;62589;12.568;99.958;2023-02-28T04:48:33;36.17;;;27.33;;
74229;SDS011;62589;12.568;99.958;2023-02-28T04:51:01;38.03;;;27.02;;
74229;SDS011;62589;12.568;99.958;2023-02-28T04:53:29;35.85;;;25.92;;
74229;SDS011;62589;12.568;99.958;2023-02-28T04:55:56;41.75;;;28.13;;
74229;SDS011;62589;12.568;99.958;2023-02-28T04:58:23;37.83;;;27.17;;
74229;SDS011;62589;12.568;99.958;2023-02-28T05:00:50;36.10;;;26.25;;
74229;SDS011;62589;12.568;99.958;2023-02-28T05:03:17;38.60;;;26.88;;
74229;SDS011;62589;12.568;99.958;2023-02-28T05:05:46;34.90;;;26.38;;
74229;SDS011;62589;12.568;99.958;2023-02-28T05:08:12;36.05;;;26.27;;
74229;SDS011;62589;12.568;99.958;2023-02-28T05:10:39;34.75;;;25.45;;
74229;SDS011;62589;12.568;99.958;2023-02-28T05:13:06;35.33;;;25.80;;
74229;SDS011;62589;12.568;99.958;2023-02-28T05:15:32;32.70;;;25.70;;
74229;SDS011;62589;12.568;99.958;2023-02-28T05:17:58;39.35;;;26.40;;
74229;SDS011;62589;12.568;99.958;2023-02-28T05:20:25;38.17;;;27.13;;
74229;SDS011;62589;12.568;99.958;2023-02-28T05:22:51;34.17;;;24.95;;
74229;SDS011;62589;12.568;99.958;2023-02-28T05:25:22;33.97;;;25.40;;
74229;SDS011;62589;12.568;99.958;2023-02-28T05:27:48;37.85;;;25.80;;
74229;SDS011;62589;12.568;99.958;2023-02-28T05:30:16;36.90;;;25.65;;
74229;SDS011;62589;12.568;99.958;2023-02-28T05:32:42;34.75;;;25.10;;
74229;SDS011;62589;12.568;99.958;2023-02-28T05:35:09;33.15;;;23.40;;
74229;SDS011;62589;12.568;99.958;2023-02-28T05:37:37;32.78;;;24.95;;
74229;SDS011;62589;12.568;99.958;2023-02-28T05:40:05;33.83;;;24.83;;
74229;SDS011;62589;12.568;99.958;2023-02-28T05:42:36;33.30;;;24.17;;
74229;SDS011;62589;12.568;99.958;2023-02-28T05:45:03;32.10;;;22.85;;
74229;SDS011;62589;12.568;99.958;2023-02-28T05:47:30;31.30;;;22.98;;
74229;SDS011;62589;12.568;99.958;2023-02-28T05:49:57;36.05;;;23.95;;
74229;SDS011;62589;12.568;99.958;2023-02-28T05:52:23;30.35;;;22.85;;
74229;SDS011;62589;12.568;99.958;2023-02-28T05:54:49;33.20;;;22.95;;
74229;SDS011;62589;12.568;99.958;2023-02-28T05:57:16;31.90;;;22.45;;
74229;SDS011;62589;12.568;99.958;2023-02-28T05:59:42;32.17;;;22.70;;
74229;SDS011;62589;12.568;99.958;2023-02-28T06:02:13;33.85;;;23.48;;
74229;SDS011;62589;12.568;99.958;2023-02-28T06:04:40;31.08;;;22.73;;
74229;SDS011;62589;12.568;99.958;2023-02-28T06:07:08;35.10;;;24.27;;
74229;SDS011;62589;12.568;99.958;2023-02-28T06:09:35;31.95;;;24.58;;
74229;SDS011;62589;12.568;99.958;2023-02-28T06:12:02;31.20;;;21.90;;
74229;SDS011;62589;12.568;99.958;2023-02-28T06:14:31;28.70;;;21.40;;
74229;SDS011;62589;12.568;99.958;2023-02-28T06:16:59;29.77;;;20.10;;
74229;SDS011;62589;12.568;99.958;2023-02-28T06:19:26;33.08;;;22.27;;
74229;SDS011;62589;12.568;99.958;2023-02-28T06:21:54;34.08;;;22.83;;
74229;SDS011;62589;12.568;99.958;2023-02-28T06:24:22;32.55;;;23.48;;
74229;SDS011;62589;12.568;99.958;2023-02-28T06:26:50;29.70;;;21.33;;
74229;SDS011;62589;12.568;99.958;2023-02-28T06:29:17;29.45;;;20.35;;
74229;SDS011;62589;12.568;99.958;2023-02-28T06:31:44;26.65;;;19.40;;
74229;SDS011;62589;12.568;99.958;2023-02-28T06:34:12;23.55;;;18.92;;
74229;SDS011;62589;12.568;99.958;2023-02-28T06:36:39;27.00;;;20.88;;
74229;SDS011;62589;12.568;99.958;2023-02-28T06:39:07;27.63;;;20.63;;
74229;SDS011;62589;12.568;99.958;2023-02-28T06:41:34;32.15;;;21.75;;
74229;SDS011;62589;12.568;99.958;2023-02-28T06:44:08;29.10;;;21.48;;
74229;SDS011;62589;12.568;99.958;2023-02-28T06:46:39;32.85;;;21.88;;
74229;SDS011;62589;12.568;99.958;2023-02-28T06:49:07;27.83;;;19.45;;
74229;SDS011;62589;12.568;99.958;2023-02-28T06:51:38;27.88;;;18.15;;
74229;SDS011;62589;12.568;99.958;2023-02-28T06:54:09;27.05;;;18.88;;
74229;SDS011;62589;12.568;99.958;2023-02-28T06:56:35;25.50;;;17.40;;
74229;SDS011;62589;12.568;99.958;2023-02-28T06:59:03;24.15;;;17.95;;
74229;SDS011;62589;12.568;99.958;2023-02-28T07:01:30;23.77;;;17.00;;
74229;SDS011;62589;12.568;99.958;2023-02-28T07:03:58;22.25;;;17.27;;
74229;SDS011;62589;12.568;99.958;2023-02-28T07:06:25;25.58;;;17.42;;
74229;SDS011;62589;12.568;99.958;2023-02-28T07:08:52;22.30;;;17.70;;
74229;SDS011;62589;12.568;99.958;2023-02-28T07:11:20;22.48;;;18.10;;
74229;SDS011;62589;12.568;99.958;2023-02-28T07:13:48;24.13;;;18.40;;
74229;SDS011;62589;12.568;99.958;2023-02-28T07:16:16;23.75;;;17.65;;
74229;SDS011;62589;12.568;99.958;2023-02-28T07:18:42;25.33;;;18.38;;
74229;SDS011;62589;12.568;99.958;2023-02-28T07:21:09;25.48;;;17.30;;
74229;SDS011;62589;12.568;99.958;2023-02-28T07:23:37;26.88;;;18.05;;
74229;SDS011;62589;12.568;99.958;2023-02-28T07:26:04;24.23;;;17.73;;
74229;SDS011;62589;12.568;99.958;2023-02-28T07:28:32;24.30;;;17.90;;
74229;SDS011;62589;12.568;99.958;2023-02-28T07:31:05;23.35;;;16.95;;
74229;SDS011;62589;12.568;99.958;2023-02-28T07:33:33;24.70;;;16.00;;
74229;SDS011;62589;12.568;99.958;2023-02-28T07:36:01;22.48;;;17.00;;
74229;SDS011;62589;12.568;99.958;2023-02-28T07:38:29;23.15;;;17.02;;
74229;SDS011;62589;12.568;99.958;2023-02-28T07:40:56;21.88;;;16.33;;
74229;SDS011;62589;12.568;99.958;2023-02-28T07:43:22;21.83;;;16.05;;
74229;SDS011;62589;12.568;99.958;2023-02-28T07:45:49;21.67;;;16.20;;
74229;SDS011;62589;12.568;99.958;2023-02-28T07:48:15;22.08;;;16.02;;
74229;SDS011;62589;12.568;99.958;2023-02-28T07:50:42;22.00;;;16.27;;
74229;SDS011;62589;12.568;99.958;2023-02-28T07:53:08;19.63;;;15.48;;
74229;SDS011;62589;12.568;99.958;2023-02-28T07:55:35;20.33;;;15.95;;
74229;SDS011;62589;12.568;99.958;2023-02-28T07:58:01;21.92;;;16.48;;
74229;SDS011;62589;12.568;99.958;2023-02-28T08:00:27;22.55;;;15.95;;
74229;SDS011;62589;12.568;99.958;2023-02-28T08:02:57;21.48;;;16.25;;
74229;SDS011;62589;12.568;99.958;2023-02-28T08:05:24;19.95;;;15.98;;
74229;SDS011;62589;12.568;99.958;2023-02-28T08:07:50;22.60;;;16.67;;
74229;SDS011;62589;12.568;99.958;2023-02-28T08:10:17;21.20;;;15.50;;
74229;SDS011;62589;12.568;99.958;2023-02-28T08:12:43;19.95;;;16.02;;
74229;SDS011;62589;12.568;99.958;2023-02-28T08:15:09;20.95;;;15.88;;
74229;SDS011;62589;12.568;99.958;2023-02-28T08:17:36;23.35;;;15.93;;
74229;SDS011;62589;12.568;99.958;2023-02-28T08:20:03;22.45;;;16.15;;
74229;SDS011;62589;12.568;99.958;2023-02-28T08:22:29;22.30;;;15.93;;
74229;SDS011;62589;12.568;99.958;2023-02-28T08:24:56;23.13;;;15.55;;
74229;SDS011;62589;12.568;99.958;2023-02-28T08:27:22;18.95;;;15.00;;
74229;SDS011;62589;12.568;99.958;2023-02-28T08:29:48;20.98;;;14.98;;
74229;SDS011;62589;12.568;99.958;2023-02-28T08:32:15;18.88;;;13.88;;
74229;SDS011;62589;12.568;99.958;2023-02-28T08:34:41;20.75;;;16.10;;
74229;SDS011;62589;12.568;99.958;2023-02-28T08:37:08;24.60;;;16.15;;
74229;SDS011;62589;12.568;99.958;2023-02-28T08:39:34;21.42;;;15.63;;
74229;SDS011;62589;12.568;99.958;2023-02-28T08:42:02;20.30;;;15.40;;
74229;SDS011;62589;12.568;99.958;2023-02-28T08:44:29;20.45;;;15.57;;
74229;SDS011;62589;12.568;99.958;2023-02-28T08:46:56;21.55;;;15.80;;
74229;SDS011;62589;12.568;99.958;2023-02-28T08:49:22;21.38;;;16.15;;
74229;SDS011;62589;12.568;99.958;2023-02-28T08:51:49;18.10;;;14.02;;
74229;SDS011;62589;12.568;99.958;2023-02-28T08:54:15;20.83;;;15.45;;
74229;SDS011;62589;12.568;99.958;2023-02-28T08:56:45;20.98;;;16.02;;
74229;SDS011;62589;12.568;99.958;2023-02-28T08:59:12;17.23;;;14.15;;
74229;SDS011;62589;12.568;99.958;2023-02-28T09:01:39;18.40;;;14.35;;
74229;SDS011;62589;12.568;99.958;2023-02-28T09:04:07;20.65;;;15.68;;
74229;SDS011;62589;12.568;99.958;2023-02-28T09:06:35;22.55;;;14.88;;
74229;SDS011;62589;12.568;99.958;2023-02-28T09:09:01;20.77;;;15.10;;
74229;SDS011;62589;12.568;99.958;2023-02-28T09:11:29;19.40;;;15.18;;
74229;SDS011;62589;12.568;99.958;2023-02-28T09:13:56;21.17;;;16.38;;
74229;SDS011;62589;12.568;99.958;2023-02-28T09:16:25;22.05;;;15.85;;
74229;SDS011;62589;12.568;99.958;2023-02-28T09:18:52;19.38;;;15.40;;
74229;SDS011;62589;12.568;99.958;2023-02-28T09:21:18;25.25;;;17.25;;
74229;SDS011;62589;12.568;99.958;2023-02-28T09:23:48;26.08;;;17.30;;
74229;SDS011;62589;12.568;99.958;2023-02-28T09:26:17;22.17;;;17.63;;
74229;SDS011;62589;12.568;99.958;2023-02-28T09:28:45;22.85;;;17.35;;
74229;SDS011;62589;12.568;99.958;2023-02-28T09:31:13;23.55;;;16.40;;
74229;SDS011;62589;12.568;99.958;2023-02-28T09:33:46;23.42;;;16.80;;
74229;SDS011;62589;12.568;99.958;2023-02-28T09:36:14;24.73;;;17.88;;
74229;SDS011;62589;12.568;99.958;2023-02-28T09:38:41;25.42;;;17.88;;
74229;SDS011;62589;12.568;99.958;2023-02-28T09:41:18;21.55;;;17.40;;
74229;SDS011;62589;12.568;99.958;2023-02-28T09:43:50;26.55;;;18.58;;
74229;SDS011;62589;12.568;99.958;2023-02-28T09:49:23;26.42;;;18.90;;
74229;SDS011;62589;12.568;99.958;2023-02-28T09:51:56;25.23;;;19.05;;
74229;SDS011;62589;12.568;99.958;2023-02-28T09:54:30;24.65;;;19.73;;
74229;SDS011;62589;12.568;99.958;2023-02-28T09:57:09;24.58;;;19.73;;
74229;SDS011;62589;12.568;99.958;2023-02-28T10:00:05;30.38;;;20.13;;
74229;SDS011;62589;12.568;99.958;2023-02-28T10:05:59;27.55;;;19.67;;
74229;SDS011;62589;12.568;99.958;2023-02-28T10:08:40;27.25;;;20.10;;
74229;SDS011;62589;12.568;99.958;2023-02-28T10:11:22;28.50;;;20.63;;
74229;SDS011;62589;12.568;99.958;2023-02-28T10:13:59;24.40;;;19.35;;
74229;SDS011;62589;12.568;99.958;2023-02-28T10:16:33;28.70;;;21.33;;
74229;SDS011;62589;12.568;99.958;2023-02-28T10:19:20;25.58;;;20.63;;
74229;SDS011;62589;12.568;99.958;2023-02-28T10:22:01;28.40;;;21.15;;
74229;SDS011;62589;12.568;99.958;2023-02-28T10:27:27;28.77;;;20.15;;
74229;SDS011;62589;12.568;99.958;2023-02-28T10:29:57;26.25;;;20.33;;
74229;SDS011;62589;12.568;99.958;2023-02-28T10:32:35;28.45;;;21.08;;
74229;SDS011;62589;12.568;99.958;2023-02-28T10:35:14;27.38;;;20.50;;
74229;SDS011;62589;12.568;99.958;2023-02-28T10:37:47;27.58;;;20.50;;
74229;SDS011;62589;12.568;99.958;2023-02-28T10:43:03;30.60;;;22.25;;
74229;SDS011;62589;12.568;99.958;2023-02-28T10:45:34;32.28;;;21.48;;
74229;SDS011;62589;12.568;99.958;2023-02-28T10:48:04;29.50;;;21.23;;
74229;SDS011;62589;12.568;99.958;2023-02-28T10:50:51;26.30;;;21.15;;
74229;SDS011;62589;12.568;99.958;2023-02-28T10:53:31;29.40;;;21.60;;
74229;SDS011;62589;12.568;99.958;2023-02-28T10:56:05;30.27;;;22.52;;
74229;SDS011;62589;12.568;99.958;2023-02-28T11:01:47;29.38;;;21.67;;
74229;SDS011;62589;12.568;99.958;2023-02-28T11:04:34;29.92;;;20.50;;
74229;SDS011;62589;12.568;99.958;2023-02-28T11:07:05;30.27;;;22.65;;
74229;SDS011;62589;12.568;99.958;2023-02-28T11:09:50;27.27;;;21.25;;
74229;SDS011;62589;12.568;99.958;2023-02-28T11:12:20;27.50;;;21.13;;
74229;SDS011;62589;12.568;99.958;2023-02-28T11:15:00;31.75;;;22.35;;
74229;SDS011;62589;12.568;99.958;2023-02-28T11:17:31;25.95;;;20.48;;
74229;SDS011;62589;12.568;99.958;2023-02-28T11:20:01;26.33;;;21.08;;
74229;SDS011;62589;12.568;99.958;2023-02-28T11:22:35;25.15;;;20.15;;
74229;SDS011;62589;12.568;99.958;2023-02-28T11:27:56;26.67;;;19.92;;
74229;SDS011;62589;12.568;99.958;2023-02-28T11:30:34;23.88;;;19.02;;
74229;SDS011;62589;12.568;99.958;2023-02-28T11:35:52;26.20;;;20.45;;
74229;SDS011;62589;12.568;99.958;2023-02-28T11:38:24;25.52;;;20.60;;
74229;SDS011;62589;12.568;99.958;2023-02-28T11:41:14;26.33;;;21.23;;
74229;SDS011;62589;12.568;99.958;2023-02-28T11:44:05;26.17;;;19.70;;
74229;SDS011;62589;12.568;99.958;2023-02-28T11:52:44;25.80;;;19.27;;
74229;SDS011;62589;12.568;99.958;2023-02-28T11:55:27;24.77;;;18.77;;
74229;SDS011;62589;12.568;99.958;2023-02-28T12:21:42;24.98;;;20.15;;
74229;SDS011;62589;12.568;99.958;2023-02-28T12:27:16;24.25;;;19.00;;
74229;SDS011;62589;12.568;99.958;2023-02-28T12:32:46;30.33;;;20.13;;
74229;SDS011;62589;12.568;99.958;2023-02-28T12:35:20;29.40;;;19.42;;
74229;SDS011;62589;12.568;99.958;2023-02-28T12:41:03;25.67;;;19.33;;
74229;SDS011;62589;12.568;99.958;2023-02-28T12:43:37;26.50;;;19.27;;
74229;SDS011;62589;12.568;99.958;2023-02-28T12:46:18;27.03;;;19.87;;
74229;SDS011;62589;12.568;99.958;2023-02-28T12:48:52;28.05;;;19.92;;
74229;SDS011;62589;12.568;99.958;2023-02-28T12:51:23;25.98;;;19.77;;
74229;SDS011;62589;12.568;99.958;2023-02-28T12:59:52;29.23;;;21.42;;
74229;SDS011;62589;12.568;99.958;2023-02-28T13:10:59;29.48;;;21.25;;
74229;SDS011;62589;12.568;99.958;2023-02-28T13:13:27;27.52;;;20.67;;
74229;SDS011;62589;12.568;99.958;2023-02-28T13:18:45;28.33;;;21.25;;
74229;SDS011;62589;12.568;99.958;2023-02-28T13:21:26;28.60;;;21.38;;
74229;SDS011;62589;12.568;99.958;2023-02-28T13:24:01;26.90;;;20.48;;
74229;SDS011;62589;12.568;99.958;2023-02-28T13:29:39;26.15;;;20.42;;
74229;SDS011;62589;12.568;99.958;2023-02-28T13:35:14;28.10;;;21.23;;
74229;SDS011;62589;12.568;99.958;2023-02-28T13:37:44;28.38;;;21.27;;
74229;SDS011;62589;12.568;99.958;2023-02-28T13:42:55;26.92;;;20.45;;
74229;SDS011;62589;12.568;99.958;2023-02-28T13:45:25;30.00;;;21.52;;
74229;SDS011;62589;12.568;99.958;2023-02-28T13:48:00;32.60;;;22.27;;
74229;SDS011;62589;12.568;99.958;2023-02-28T13:50:30;28.38;;;22.00;;
74229;SDS011;62589;12.568;99.958;2023-02-28T14:07:33;26.85;;;20.70;;
74229;SDS011;62589;12.568;99.958;2023-02-28T14:10:15;28.37;;;20.97;;
74229;SDS011;62589;12.568;99.958;2023-02-28T14:12:56;27.33;;;20.67;;
74229;SDS011;62589;12.568;99.958;2023-02-28T14:15:38;28.33;;;21.05;;
74229;SDS011;62589;12.568;99.958;2023-02-28T14:18:26;26.58;;;19.55;;
74229;SDS011;62589;12.568;99.958;2023-02-28T14:21:24;25.65;;;20.48;;
74229;SDS011;62589;12.568;99.958;2023-02-28T14:27:11;27.35;;;21.23;;
74229;SDS011;62589;12.568;99.958;2023-02-28T14:39:15;26.25;;;20.33;;
74229;SDS011;62589;12.568;99.958;2023-02-28T14:41:45;29.10;;;20.15;;
74229;SDS011;62589;12.568;99.958;2023-02-28T14:44:17;28.08;;;21.33;;
74229;SDS011;62589;12.568;99.958;2023-02-28T14:46:49;28.52;;;21.08;;
74229;SDS011;62589;12.568;99.958;2023-02-28T14:49:20;24.02;;;20.25;;
74229;SDS011;62589;12.568;99.958;2023-02-28T14:52:03;27.58;;;19.90;;
74229;SDS011;62589;12.568;99.958;2023-02-28T14:54:42;30.67;;;21.13;;
74229;SDS011;62589;12.568;99.958;2023-02-28T15:02:42;25.30;;;19.92;;
74229;SDS011;62589;12.568;99.958;2023-02-28T15:05:26;26.25;;;19.67;;
74229;SDS011;62589;12.568;99.958;2023-02-28T15:08:11;28.50;;;21.00;;
74229;SDS011;62589;12.568;99.958;2023-02-28T15:10:50;31.35;;;20.27;;
74229;SDS011;62589;12.568;99.958;2023-02-28T15:13:31;27.05;;;20.02;;
74229;SDS011;62589;12.568;99.958;2023-02-28T15:18:59;27.50;;;20.70;;
74229;SDS011;62589;12.568;99.958;2023-02-28T15:21:32;31.33;;;22.58;;
74229;SDS011;62589;12.568;99.958;2023-02-28T15:24:04;31.05;;;23.23;;
74229;SDS011;62589;12.568;99.958;2023-02-28T15:26:50;35.25;;;25.55;;
74229;SDS011;62589;12.568;99.958;2023-02-28T15:29:26;38.28;;;26.58;;
74229;SDS011;62589;12.568;99.958;2023-02-28T15:31:57;34.88;;;26.45;;
74229;SDS011;62589;12.568;99.958;2023-02-28T15:40:23;38.88;;;27.73;;
74229;SDS011;62589;12.568;99.958;2023-02-28T15:43:14;40.58;;;29.38;;
74229;SDS011;62589;12.568;99.958;2023-02-28T15:45:52;38.72;;;28.42;;
74229;SDS011;62589;12.568;99.958;2023-02-28T15:48:31;43.05;;;30.52;;
74229;SDS011;62589;12.568;99.958;2023-02-28T15:51:07;39.65;;;28.83;;
74229;SDS011;62589;12.568;99.958;2023-02-28T15:59:22;37.25;;;28.00;;
74229;SDS011;62589;12.568;99.958;2023-02-28T16:04:59;39.58;;;28.00;;
74229;SDS011;62589;12.568;99.958;2023-02-28T16:07:28;39.67;;;27.70;;
74229;SDS011;62589;12.568;99.958;2023-02-28T16:09:55;34.30;;;26.60;;
74229;SDS011;62589;12.568;99.958;2023-02-28T16:12:24;38.85;;;26.13;;
74229;SDS011;62589;12.568;99.958;2023-02-28T16:14:53;39.35;;;26.65;;
74229;SDS011;62589;12.568;99.958;2023-02-28T16:17:22;38.80;;;27.75;;
74229;SDS011;62589;12.568;99.958;2023-02-28T16:19:53;37.40;;;27.77;;
74229;SDS011;62589;12.568;99.958;2023-02-28T16:22:20;35.88;;;26.38;;
74229;SDS011;62589;12.568;99.958;2023-02-28T16:24:47;37.45;;;26.33;;
74229;SDS011;62589;12.568;99.958;2023-02-28T16:27:18;35.22;;;26.52;;
74229;SDS011;62589;12.568;99.958;2023-02-28T16:29:56;40.38;;;27.15;;
74229;SDS011;62589;12.568;99.958;2023-02-28T16:32:22;35.28;;;25.95;;
74229;SDS011;62589;12.568;99.958;2023-02-28T16:34:49;35.17;;;26.05;;
74229;SDS011;62589;12.568;99.958;2023-02-28T16:37:16;42.13;;;26.77;;
74229;SDS011;62589;12.568;99.958;2023-02-28T16:39:43;31.75;;;25.50;;
74229;SDS011;62589;12.568;99.958;2023-02-28T16:42:13;34.80;;;25.42;;
74229;SDS011;62589;12.568;99.958;2023-02-28T16:44:46;36.65;;;26.63;;
74229;SDS011;62589;12.568;99.958;2023-02-28T16:47:13;34.97;;;26.27;;
74229;SDS011;62589;12.568;99.958;2023-02-28T16:49:39;33.10;;;26.35;;
74229;SDS011;62589;12.568;99.958;2023-02-28T16:52:07;40.85;;;29.00;;
74229;SDS011;62589;12.568;99.958;2023-02-28T16:54:38;36.05;;;26.60;;
74229;SDS011;62589;12.568;99.958;2023-02-28T16:57:06;39.20;;;27.85;;
74229;SDS011;62589;12.568;99.958;2023-02-28T16:59:44;40.40;;;27.13;;
74229;SDS011;62589;12.568;99.958;2023-02-28T17:02:12;39.33;;;27.27;;
74229;SDS011;62589;12.568;99.958;2023-02-28T17:04:40;38.17;;;27.20;;
74229;SDS011;62589;12.568;99.958;2023-02-28T17:07:14;34.85;;;25.50;;
74229;SDS011;62589;12.568;99.958;2023-02-28T17:09:42;35.72;;;26.15;;
74229;SDS011;62589;12.568;99.958;2023-02-28T17:12:09;35.92;;;26.80;;
74229;SDS011;62589;12.568;99.958;2023-02-28T17:14:36;36.95;;;27.77;;
74229;SDS011;62589;12.568;99.958;2023-02-28T17:17:04;37.38;;;28.33;;
74229;SDS011;62589;12.568;99.958;2023-02-28T17:19:31;37.28;;;29.08;;
74229;SDS011;62589;12.568;99.958;2023-02-28T17:21:59;47.97;;;28.98;;
74229;SDS011;62589;12.568;99.958;2023-02-28T17:24:28;40.45;;;28.75;;
74229;SDS011;62589;12.568;99.958;2023-02-28T17:26:55;39.28;;;28.55;;